Time;durP1;ratioP1;P1;durP2;ratioP2;P2;SDS_P1;SDS_P2;PMS_P1;PMS_P2;Temp;Humidity;BMP_temperature;BMP_pressure;BME280_temperature;BME280_humidity;BME280_pressure;Samples;Min_cycle;Max_cycle;Signal;HPM_P1;HPM_P2
2023/08/23 00:01:58;;;;;;;24.98;11.63;;;;;;;16.38;77.35;99002.00;5036008;28;20065;-91
2023/08/23 00:04:26;;;;;;;23.48;12.10;;;;;;;16.15;77.69;98963.25;5053345;28;20051;-92
2023/08/23 00:06:52;;;;;;;27.13;12.40;;;;;;;16.35;77.85;98999.16;5055263;28;20040;-89
2023/08/23 00:09:18;;;;;;;24.73;12.77;;;;;;;16.26;78.01;98984.75;5053010;28;20037;-89
2023/08/23 00:11:44;;;;;;;27.73;12.77;;;;;;;16.26;78.52;98990.28;5054290;28;20092;-89
2023/08/23 00:14:10;;;;;;;37.63;13.53;;;;;;;16.14;78.76;98980.97;5053033;28;20077;-89
2023/08/23 00:16:36;;;;;;;30.45;13.38;;;;;;;16.25;78.55;98991.44;5043918;28;20040;-88
2023/08/23 00:19:02;;;;;;;26.65;12.95;;;;;;;16.23;78.87;98997.34;5036269;28;20497;-89
2023/08/23 00:21:30;;;;;;;27.05;13.05;;;;;;;16.06;79.22;98979.22;5017446;28;20041;-92
2023/08/23 00:23:59;;;;;;;27.83;12.85;;;;;;;15.96;78.84;98958.50;5037710;28;20048;-89
2023/08/23 00:26:24;;;;;;;29.20;13.23;;;;;;;16.10;78.95;98991.13;5052743;28;20049;-89
2023/08/23 00:28:50;;;;;;;37.13;13.55;;;;;;;16.29;79.09;99008.88;5038141;28;20037;-92
2023/08/23 00:31:16;;;;;;;29.80;12.82;;;;;;;16.00;79.12;98972.38;5055218;28;20120;-91
2023/08/23 00:33:42;;;;;;;26.35;12.93;;;;;;;16.17;79.13;98998.75;5067995;28;20124;-89
2023/08/23 00:36:08;;;;;;;35.25;12.93;;;;;;;16.12;79.12;98993.50;5039559;28;20490;-90
2023/08/23 00:38:35;;;;;;;23.35;12.50;;;;;;;16.05;78.95;98969.31;5030761;28;20140;-90
2023/08/23 00:41:03;;;;;;;23.20;12.27;;;;;;;16.18;78.96;98994.84;5055746;28;20060;-92
2023/08/23 00:43:31;;;;;;;32.08;12.07;;;;;;;16.08;78.93;98979.63;5054021;28;20110;-87
2023/08/23 00:45:57;;;;;;;23.38;11.48;;;;;;;16.01;78.93;98970.41;5052707;28;20534;-87
2023/08/23 00:48:24;;;;;;;25.20;11.93;;;;;;;16.13;78.95;99000.63;5034208;28;20036;-89
2023/08/23 00:50:50;;;;;;;31.30;13.00;;;;;;;16.00;79.07;98986.16;5050848;28;20037;-89
2023/08/23 00:53:16;;;;;;;32.72;12.23;;;;;;;15.93;79.11;98973.00;5016490;28;20460;-87
2023/08/23 00:55:42;;;;;;;23.27;11.25;;;;;;;16.00;78.82;98983.41;4998820;28;20133;-89
2023/08/23 00:58:09;;;;;;;30.02;12.50;;;;;;;15.89;78.51;98972.13;5018898;28;20417;-87
2023/08/23 01:00:35;;;;;;;29.60;12.20;;;;;;;16.00;78.74;98991.66;5054415;28;20040;-87
2023/08/23 01:03:01;;;;;;;22.95;11.68;;;;;;;15.93;78.73;98984.03;5035560;28;20037;-88
2023/08/23 01:05:48;;;;;;;29.65;13.70;;;;;;;16.06;78.69;98995.75;5042154;28;20083;-89
2023/08/23 01:08:37;;;;;;;25.42;12.40;;;;;;;15.94;78.71;98984.81;5039980;28;20045;-89
2023/08/23 01:11:18;;;;;;;25.95;12.85;;;;;;;15.97;78.98;98995.94;5076904;28;20040;-92
2023/08/23 01:14:31;;;;;;;25.80;12.73;;;;;;;15.87;79.29;98990.97;5060517;28;20060;-92
2023/08/23 01:16:59;;;;;;;30.23;13.25;;;;;;;15.68;79.24;98958.59;4983219;28;20046;-91
2023/08/23 01:19:38;;;;;;;28.00;12.98;;;;;;;15.74;79.04;98967.41;4955910;28;20043;-93
2023/08/23 01:22:06;;;;;;;33.33;12.65;;;;;;;15.78;79.31;98970.25;4950775;28;20046;-90
2023/08/23 01:24:32;;;;;;;30.23;12.63;;;;;;;15.84;78.97;98982.59;4999757;28;20038;-90
2023/08/23 01:26:58;;;;;;;29.92;11.85;;;;;;;15.69;78.80;98962.97;4967011;28;20046;-90
2023/08/23 01:29:24;;;;;;;23.88;12.77;;;;;;;15.72;79.19;98975.22;4999648;28;20138;-90
2023/08/23 01:31:56;;;;;;;32.08;11.52;;;;;;;15.65;79.08;98970.28;4984351;28;20046;-91
2023/08/23 01:34:31;;;;;;;22.67;12.25;;;;;;;15.80;79.31;98996.28;4992772;28;20082;-90
2023/08/23 01:37:01;;;;;;;23.38;12.43;;;;;;;15.65;79.44;98966.75;5036114;28;20057;-90
2023/08/23 01:39:28;;;;;;;29.95;12.38;;;;;;;15.72;79.51;98970.50;5009299;28;20130;-89
2023/08/23 01:41:55;;;;;;;29.05;12.77;;;;;;;15.63;79.48;98967.09;4977563;28;20054;-92
2023/08/23 01:44:21;;;;;;;27.40;13.15;;;;;;;15.66;79.27;98971.94;4963562;28;20039;-91
2023/08/23 01:46:47;;;;;;;35.65;12.73;;;;;;;15.70;79.31;98974.78;4946498;28;20141;-92
2023/08/23 01:49:13;;;;;;;26.00;12.45;;;;;;;15.60;79.48;98962.31;4962828;28;20082;-92
2023/08/23 01:51:39;;;;;;;24.50;11.77;;;;;;;15.56;79.52;98960.59;4979022;28;20629;-90
2023/08/23 01:54:05;;;;;;;29.67;11.82;;;;;;;15.63;79.26;98964.34;5022584;28;20060;-90
2023/08/23 01:56:32;;;;;;;32.55;13.05;;;;;;;15.52;78.81;98944.78;5023153;28;20041;-90
2023/08/23 01:58:58;;;;;;;26.60;13.38;;;;;;;15.65;78.84;98973.03;5041501;28;20042;-89
2023/08/23 02:01:24;;;;;;;28.50;13.40;;;;;;;15.45;78.34;98941.84;5048737;28;20066;-92
2023/08/23 02:03:50;;;;;;;22.98;12.95;;;;;;;15.60;79.05;98969.78;5073531;28;20017;-89
2023/08/23 02:06:16;;;;;;;37.03;13.63;;;;;;;15.70;79.37;98985.81;5061593;28;20094;-89
2023/08/23 02:08:42;;;;;;;28.98;14.88;;;;;;;15.50;79.76;98966.38;5032233;28;20053;-90
2023/08/23 02:11:09;;;;;;;31.77;14.10;;;;;;;15.46;79.57;98953.66;5057726;28;20083;-89
2023/08/23 02:13:35;;;;;;;32.63;14.38;;;;;;;15.55;79.65;98968.06;5022871;28;20045;-90
2023/08/23 02:16:01;;;;;;;34.08;14.05;;;;;;;15.51;79.67;98978.19;5021978;28;20539;-90
2023/08/23 02:18:26;;;;;;;37.50;14.23;;;;;;;15.53;80.17;98970.38;5024965;28;20105;-92
2023/08/23 02:20:59;;;;;;;24.02;12.90;;;;;;;15.51;79.68;98983.72;5006776;28;20517;-90
2023/08/23 02:23:26;;;;;;;34.70;14.75;;;;;;;15.31;80.05;98954.47;5035612;28;20133;-90
2023/08/23 02:25:53;;;;;;;32.15;13.95;;;;;;;15.40;79.63;98971.63;5026041;28;20037;-91
2023/08/23 02:28:19;;;;;;;39.57;14.33;;;;;;;15.43;79.86;98979.97;5025080;28;20041;-90
2023/08/23 02:30:45;;;;;;;32.08;12.77;;;;;;;15.36;79.75;98979.75;5022113;28;20037;-91
2023/08/23 02:33:11;;;;;;;28.37;13.83;;;;;;;15.37;80.17;98984.13;5028552;28;20033;-91
2023/08/23 02:35:44;;;;;;;25.20;13.02;;;;;;;15.08;81.38;98954.22;5021492;28;20044;-93
2023/08/23 02:38:12;;;;;;;32.65;14.18;;;;;;;15.23;81.61;98978.22;5039926;28;20103;-91
2023/08/23 02:40:45;;;;;;;31.15;13.85;;;;;;;15.20;81.65;98979.75;5057326;28;20049;-90
2023/08/23 02:43:12;;;;;;;33.05;13.10;;;;;;;15.11;82.01;98970.06;5057528;28;20064;-92
2023/08/23 02:45:41;;;;;;;25.55;13.55;;;;;;;15.29;82.04;98993.34;5075480;28;20045;-91
2023/08/23 02:48:11;;;;;;;26.98;12.50;;;;;;;15.20;81.93;98982.50;5038802;28;20033;-93
2023/08/23 02:50:38;;;;;;;33.67;14.02;;;;;;;15.31;82.12;98993.00;5024671;28;20063;-90
2023/08/23 02:53:04;;;;;;;30.05;13.50;;;;;;;15.16;82.32;98964.28;5048970;28;20055;-90
2023/08/23 02:55:37;;;;;;;35.05;14.07;;;;;;;15.12;82.66;98975.19;5037590;28;20135;-90
2023/08/23 02:58:04;;;;;;;29.70;13.73;;;;;;;15.08;82.70;98968.78;5049603;28;20152;-90
2023/08/23 03:00:30;;;;;;;31.70;13.52;;;;;;;15.30;82.42;98983.94;5024368;28;20568;-89
2023/08/23 03:02:56;;;;;;;33.73;13.83;;;;;;;15.16;82.30;98967.03;5025580;28;20045;-91
2023/08/23 03:05:22;;;;;;;27.23;13.75;;;;;;;15.16;82.52;98967.81;5042378;28;20306;-89
2023/08/23 03:07:50;;;;;;;34.72;13.65;;;;;;;15.13;82.46;98957.53;5058848;28;20045;-89
2023/08/23 03:10:16;;;;;;;30.80;13.65;;;;;;;15.44;82.54;99008.31;5041400;28;20041;-90
2023/08/23 03:12:42;;;;;;;38.92;13.05;;;;;;;15.55;82.34;99000.31;5037784;28;20029;-90
2023/08/23 03:15:09;;;;;;;28.43;14.47;;;;;;;15.48;81.93;98984.41;5007476;28;20037;-90
2023/08/23 03:17:35;;;;;;;30.95;15.10;;;;;;;15.48;82.08;98984.41;5025492;28;20037;-89
2023/08/23 03:20:03;;;;;;;40.13;14.05;;;;;;;15.43;82.35;98977.22;5061660;28;20422;-92
2023/08/23 03:22:31;;;;;;;31.67;13.18;;;;;;;15.67;82.38;98992.81;5026042;28;20064;-90
2023/08/23 03:24:58;;;;;;;28.48;14.25;;;;;;;15.59;82.59;98976.41;5026252;28;20040;-91
2023/08/23 03:27:24;;;;;;;28.17;13.23;;;;;;;15.67;82.35;98976.28;5042703;28;20043;-90
2023/08/23 03:29:52;;;;;;;34.55;13.77;;;;;;;15.86;82.29;98996.81;5041140;28;20033;-90
2023/08/23 03:32:19;;;;;;;42.40;13.93;;;;;;;15.91;82.23;98991.03;5026836;28;20449;-90
2023/08/23 03:34:47;;;;;;;36.65;13.75;;;;;;;15.76;82.07;98950.50;5019751;28;20070;-89
2023/08/23 03:37:14;;;;;;;26.13;12.50;;;;;;;15.98;81.86;98960.88;5045740;28;20132;-89
2023/08/23 03:39:40;;;;;;;;;;;;;;;16.29;81.52;98989.56;5054107;28;20077;-89
2023/08/23 03:42:06;;;;;;;22.97;11.70;;;;;;;16.23;81.36;98971.72;5006275;28;19967;-88
2023/08/23 03:44:32;;;;;;;24.25;11.93;;;;;;;16.19;80.95;98941.28;5004402;28;20348;-90
2023/08/23 03:46:59;;;;;;;30.75;12.60;;;;;;;16.36;80.75;98962.16;5038432;28;20073;-93
2023/08/23 03:49:25;;;;;;;23.10;11.27;;;;;;;16.34;80.24;98936.88;5010005;28;20078;-91
2023/08/23 03:51:51;;;;;;;20.63;11.65;;;;;;;16.65;80.25;98958.88;5026993;28;20128;-88
2023/08/23 03:54:19;;;;;;;24.40;11.43;;;;;;;16.64;80.13;98943.44;5041934;28;20041;-88
2023/08/23 03:56:47;;;;;;;25.25;10.77;;;;;;;16.93;79.27;98962.59;5076883;28;20049;-89
2023/08/23 03:59:13;;;;;;;16.83;11.18;;;;;;;17.14;79.29;98968.53;5010338;28;20053;-87
2023/08/23 04:01:43;;;;;;;23.38;11.05;;;;;;;17.08;78.30;98958.94;5013713;28;20064;-89
2023/08/23 04:04:09;;;;;;;;;;;;;;;17.33;78.24;98982.31;5042458;28;20033;-91
2023/08/23 04:06:35;;;;;;;;;;;;;;;17.38;78.03;98978.44;4995896;28;19925;-90
2023/08/23 04:09:05;;;;;;;21.95;10.45;;;;;;;17.32;78.11;98952.31;5042527;28;19921;-89
2023/08/23 04:11:36;;;;;;;20.98;10.38;;;;;;;17.28;76.33;98937.59;5048938;28;20017;-90
2023/08/23 04:14:02;;;;;;;21.05;10.25;;;;;;;17.47;76.58;98959.66;5009326;28;20137;-90
2023/08/23 04:16:28;;;;;;;30.20;10.03;;;;;;;17.57;76.77;98970.09;5042731;28;20041;-89
2023/08/23 04:18:54;;;;;;;19.90;10.53;;;;;;;17.64;76.99;98957.59;5043711;28;20631;-90
2023/08/23 04:21:26;;;;;;;22.45;9.18;;;;;;;17.60;75.92;98941.72;5014714;28;20482;-91
2023/08/23 04:23:55;;;;;;;29.75;9.68;;;;;;;17.84;75.88;98989.53;5026518;28;20061;-88
2023/08/23 04:26:23;;;;;;;21.77;8.67;;;;;;;17.98;75.45;98989.81;5012657;28;20059;-89
2023/08/23 04:28:51;;;;;;;15.95;7.80;;;;;;;17.85;74.59;98969.03;5047136;28;20040;-90
2023/08/23 04:31:18;;;;;;;;;;;;;;;18.01;74.89;98983.53;5055757;28;20047;-90
2023/08/23 04:33:51;;;;;;;15.63;7.75;;;;;;;17.84;74.93;98959.94;5046290;28;19925;-90
2023/08/23 04:36:17;;;;;;;;;;;;;;;18.10;74.77;98982.47;5012377;28;20049;-90
2023/08/23 04:38:45;;;;;;;22.93;8.27;;;;;;;17.99;74.46;98960.16;5025657;28;19931;-90
2023/08/23 04:41:12;;;;;;;17.23;7.93;;;;;;;17.84;74.99;98946.09;4993661;28;20191;-90
2023/08/23 04:43:46;;;;;;;21.80;8.40;;;;;;;18.04;74.59;98963.41;5035169;28;20069;-89
2023/08/23 04:46:13;;;;;;;16.27;8.90;;;;;;;18.02;74.32;98957.47;5028588;28;20584;-91
2023/08/23 04:48:42;;;;;;;14.75;8.57;;;;;;;17.97;74.51;98949.47;5063647;28;20090;-90
2023/08/23 04:51:09;;;;;;;20.73;9.20;;;;;;;18.20;75.29;98971.56;5067376;28;20052;-90
2023/08/23 04:53:36;;;;;;;20.00;9.82;;;;;;;18.24;75.36;98974.38;5034990;28;20034;-90
2023/08/23 04:56:03;;;;;;;13.25;8.43;;;;;;;17.96;74.71;98916.66;5031471;28;20034;-91
2023/08/23 04:58:30;;;;;;;20.98;9.57;;;;;;;18.23;74.06;98968.03;4969831;28;20295;-90
2023/08/23 05:01:05;;;;;;;15.80;9.15;;;;;;;18.31;74.21;98963.44;4987726;28;20182;-91
2023/08/23 05:03:44;;;;;;;18.42;9.38;;;;;;;18.14;74.43;98928.78;5018535;28;20050;-87
2023/08/23 05:06:13;;;;;;;16.55;9.45;;;;;;;18.18;74.12;98915.00;5019207;28;20538;-90
2023/08/23 05:08:40;;;;;;;21.43;9.20;;;;;;;18.42;73.27;98949.75;4990646;28;20503;-90
2023/08/23 05:11:16;;;;;;;19.52;10.48;;;;;;;18.46;73.49;98945.84;5027080;28;20038;-91
2023/08/23 05:13:44;;;;;;;28.02;9.98;;;;;;;18.67;73.09;98977.75;4979800;28;20060;-93
2023/08/23 05:16:12;;;;;;;23.77;10.88;;;;;;;18.70;73.31;98977.78;4973951;28;20078;-91
2023/08/23 05:18:38;;;;;;;15.65;9.88;;;;;;;18.66;73.52;98956.78;5020468;28;20053;-89
2023/08/23 05:21:05;;;;;;;19.93;10.00;;;;;;;18.30;72.54;98898.19;5021126;28;20049;-94
2023/08/23 05:23:31;;;;;;;26.25;11.07;;;;;;;18.83;73.06;98960.97;4989411;28;20056;-91
2023/08/23 05:26:00;;;;;;;21.77;11.05;;;;;;;18.86;72.31;98955.47;5005313;28;20073;-91
2023/08/23 05:28:26;;;;;;;17.35;11.52;;;;;;;19.01;73.31;98960.00;5019395;28;20120;-90
2023/08/23 05:30:52;;;;;;;22.02;10.88;;;;;;;19.16;73.14;98974.81;5004396;28;20042;-89
2023/08/23 05:33:27;;;;;;;21.38;11.82;;;;;;;18.87;71.63;98932.13;4993601;28;20057;-92
2023/08/23 05:36:12;;;;;;;24.83;11.43;;;;;;;19.07;72.39;98959.66;5045260;28;20045;-92
2023/08/23 05:38:41;;;;;;;20.98;10.60;;;;;;;18.98;72.74;98935.84;5068129;28;20056;-91
2023/08/23 05:41:09;;;;;;;25.77;11.10;;;;;;;19.15;72.48;98945.53;5000323;28;20052;-92
2023/08/23 05:43:36;;;;;;;21.25;10.80;;;;;;;19.09;71.09;98935.16;5018693;28;20044;-90
2023/08/23 05:46:05;;;;;;;20.53;10.97;;;;;;;19.45;71.60;98975.91;5058808;28;20127;-90
2023/08/23 05:48:34;;;;;;;21.15;10.45;;;;;;;19.36;70.78;98949.69;4989834;28;20041;-89
2023/08/23 05:51:04;;;;;;;18.23;10.38;;;;;;;19.25;70.37;98944.03;5044733;28;20049;-91
2023/08/23 05:53:30;;;;;;;15.55;10.35;;;;;;;19.27;70.22;98950.00;5047717;28;20037;-90
2023/08/23 05:55:56;;;;;;;12.43;7.55;;;;;;;19.16;69.45;98900.00;5080627;28;20044;-91
2023/08/23 05:58:22;;;;;;;17.00;7.77;;;;;;;19.54;67.39;98963.75;5008307;28;20049;-88
2023/08/23 06:00:49;;;;;;;29.13;8.60;;;;;;;19.51;68.08;98965.28;5037425;28;20300;-89
2023/08/23 06:03:16;;;;;;;17.52;7.60;;;;;;;19.39;69.16;98923.97;5040507;28;20037;-90
2023/08/23 06:05:44;;;;;;;10.55;7.22;;;;;;;19.52;68.52;98935.59;5025234;28;20065;-89
2023/08/23 06:08:11;;;;;;;17.77;7.90;;;;;;;19.27;68.26;98905.69;5019517;28;20037;-91
2023/08/23 06:10:37;;;;;;;15.57;6.97;;;;;;;19.63;68.05;98950.34;5038681;28;20060;-89
2023/08/23 06:13:03;;;;;;;22.10;6.83;;;;;;;19.54;67.75;98936.81;5057781;28;20068;-88
2023/08/23 06:15:29;;;;;;;;;;;;;;;19.87;68.48;98962.88;5060939;28;20127;-89
2023/08/23 06:17:55;;;;;;;15.05;7.38;;;;;;;19.83;67.90;98931.50;5051887;28;19923;-89
2023/08/23 06:20:21;;;;;;;21.65;9.00;;;;;;;19.88;67.54;98940.28;5067819;28;20025;-89
2023/08/23 06:22:48;;;;;;;14.50;8.20;;;;;;;19.69;66.94;98921.09;5066173;28;20044;-93
2023/08/23 06:25:14;;;;;;;16.95;8.27;;;;;;;19.74;67.43;98945.72;5035881;28;20064;-90
2023/08/23 06:27:41;;;;;;;;;;;;;;;19.80;68.07;98966.38;5016630;28;20052;-90
2023/08/23 06:30:07;;;;;;;12.65;7.15;;;;;;;19.42;67.73;98920.44;5063796;28;19953;-92
2023/08/23 06:32:34;;;;;;;10.20;7.53;;;;;;;19.35;67.64;98920.38;5033933;28;20124;-94
2023/08/23 06:52:43;;;;;;;12.73;6.63;;;;;;;19.97;66.87;98928.03;5066108;23;20048;-91
2023/08/23 06:55:11;;;;;;;8.40;5.95;;;;;;;20.01;67.17;98968.53;4899757;29;20044;-91
2023/08/23 06:57:39;;;;;;;14.40;5.80;;;;;;;19.93;67.66;98959.34;4932463;29;20555;-91
2023/08/23 07:00:31;;;;;;;13.35;6.30;;;;;;;19.85;68.38;98960.47;4943708;29;20055;-89
2023/08/23 07:02:57;;;;;;;9.68;5.65;;;;;;;19.77;69.05;98958.00;4922630;29;20071;-92
2023/08/23 07:05:39;;;;;;;11.50;6.20;;;;;;;19.64;69.14;98927.03;4933089;29;20040;-90
2023/08/23 07:08:05;;;;;;;14.00;6.57;;;;;;;19.79;68.50;98956.44;4932133;29;20063;-91
2023/08/23 07:10:32;;;;;;;12.30;7.35;;;;;;;19.92;68.85;98968.06;4900767;29;20292;-92
2023/08/23 07:12:58;;;;;;;14.43;8.77;;;;;;;19.62;68.92;98935.69;4917650;29;20095;-91
2023/08/23 07:15:24;;;;;;;12.55;7.15;;;;;;;19.58;69.75;98940.41;4930855;29;20056;-90
2023/08/23 07:17:53;;;;;;;;;;;;;;;19.63;70.34;98970.56;4930703;29;20054;-90
2023/08/23 07:20:27;;;;;;;8.00;5.60;;;;;;;19.15;70.46;98922.56;4935012;29;19938;-91
2023/08/23 07:22:58;;;;;;;14.77;7.03;;;;;;;19.47;71.10;98951.41;4936850;29;20039;-89
2023/08/23 07:25:26;;;;;;;7.75;5.50;;;;;;;19.43;71.10;98967.19;4931658;29;20070;-89
2023/08/23 07:27:52;;;;;;;10.13;5.85;;;;;;;19.42;71.41;98967.56;4912995;29;20050;-90
2023/08/23 07:30:18;;;;;;;6.93;4.80;;;;;;;19.16;70.60;98938.78;4929029;29;20059;-93
2023/08/23 07:32:45;;;;;;;6.93;4.53;;;;;;;19.27;70.96;98954.72;4950682;29;20099;-92
2023/08/23 07:35:13;;;;;;;8.10;5.43;;;;;;;19.32;71.28;98966.28;4917944;29;20053;-89
2023/08/23 07:37:40;;;;;;;11.10;8.40;;;;;;;19.38;72.12;98966.75;4914549;29;20067;-91
2023/08/23 07:40:09;;;;;;;10.70;8.95;;;;;;;19.24;71.51;98942.47;4932123;29;20040;-90
2023/08/23 07:42:41;;;;;;;14.10;6.88;;;;;;;19.46;72.15;98987.81;4931064;29;20032;-92
2023/08/23 07:45:21;;;;;;;14.00;8.57;;;;;;;19.31;72.11;98964.69;4919897;29;20048;-89
2023/08/23 07:47:50;;;;;;;17.45;7.82;;;;;;;19.16;72.41;98957.41;4931863;29;20051;-91
2023/08/23 07:50:26;;;;;;;14.35;8.20;;;;;;;18.98;73.25;98946.91;4934553;29;20055;-88
2023/08/23 07:52:54;;;;;;;44.05;9.60;;;;;;;19.10;73.15;98964.44;4915045;29;20024;-90
2023/08/23 07:55:22;;;;;;;22.13;13.52;;;;;;;18.98;73.45;98946.91;4913761;29;20036;-91
2023/08/23 07:58:01;;;;;;;15.77;10.68;;;;;;;19.25;72.83;98975.31;4937140;29;20058;-90
2023/08/23 08:00:28;;;;;;;13.88;8.73;;;;;;;18.93;72.69;98943.69;4902696;29;20028;-91
2023/08/23 08:03:35;;;;;;;9.27;7.30;;;;;;;19.13;73.11;98974.78;4932740;29;20171;-89
2023/08/23 08:06:02;;;;;;;12.85;7.35;;;;;;;19.11;72.80;98972.41;4916612;29;20040;-90
2023/08/23 08:08:28;;;;;;;10.68;8.02;;;;;;;19.29;72.84;98972.59;4931641;29;20028;-88
2023/08/23 08:10:59;;;;;;;11.88;7.07;;;;;;;19.29;72.30;98942.09;4913622;29;20059;-90
2023/08/23 08:13:27;;;;;;;11.13;5.95;;;;;;;19.51;70.37;98958.94;4919809;29;20052;-89
2023/08/23 08:16:12;;;;;;;12.40;5.28;;;;;;;19.74;70.04;98970.69;4932700;29;20051;-90
2023/08/23 08:18:39;;;;;;;8.98;5.88;;;;;;;19.78;69.09;98965.97;4936358;29;20040;-90
2023/08/23 08:21:48;;;;;;;10.27;5.53;;;;;;;19.76;68.87;98950.88;4934809;29;20185;-95
2023/08/23 08:24:19;;;;;;;10.77;5.22;;;;;;;19.65;68.16;98948.81;4912370;29;20078;-90
2023/08/23 08:26:46;;;;;;;11.43;5.13;;;;;;;19.86;67.69;98962.06;4894189;29;20104;-89
2023/08/23 08:29:14;;;;;;;8.82;5.05;;;;;;;20.08;67.07;98956.69;4909993;29;20039;-88
2023/08/23 08:31:40;;;;;;;11.70;5.57;;;;;;;20.06;66.42;98957.03;4908135;29;20036;-88
2023/08/23 08:34:08;;;;;;;12.52;6.22;;;;;;;19.87;66.33;98912.94;4906904;29;20048;-91
2023/08/23 08:36:58;;;;;;;8.43;5.70;;;;;;;20.12;66.63;98954.72;4910631;29;20055;-90
2023/08/23 08:39:29;;;;;;;7.45;5.20;;;;;;;20.19;66.94;98949.22;4916898;29;20044;-88
2023/08/23 08:41:56;;;;;;;9.00;4.90;;;;;;;19.97;66.76;98916.94;4899502;29;20052;-88
2023/08/23 08:44:25;;;;;;;14.63;5.40;;;;;;;19.99;66.37;98932.03;4928745;29;20062;-88
2023/08/23 08:46:54;;;;;;;16.48;5.30;;;;;;;19.86;67.27;98914.09;4915948;29;20079;-90
2023/08/23 08:49:25;;;;;;;12.32;5.35;;;;;;;20.16;67.32;98938.88;4897525;29;20029;-90
2023/08/23 08:52:04;;;;;;;6.55;4.30;;;;;;;20.03;66.50;98929.28;4910601;29;20036;-88
2023/08/23 08:54:34;;;;;;;10.13;4.13;;;;;;;20.13;65.49;98951.56;4845989;29;20054;-88
2023/08/23 08:57:02;;;;;;;8.55;4.50;;;;;;;20.07;65.86;98939.25;5074003;23;20062;-88
2023/08/23 08:59:29;;;;;;;13.52;4.40;;;;;;;20.02;65.92;98930.47;4936538;28;20115;-88
2023/08/23 09:02:07;;;;;;;15.95;4.72;;;;;;;20.00;66.73;98921.72;4969771;28;20039;-89
2023/08/23 09:04:38;;;;;;;9.48;4.25;;;;;;;20.06;66.33;98948.72;4952071;29;20031;-88
2023/08/23 09:07:19;;;;;;;7.43;4.45;;;;;;;19.70;66.58;98917.16;4963204;29;20058;-88
2023/08/23 09:09:50;;;;;;;5.75;4.50;;;;;;;19.82;66.83;98916.06;4957770;29;20489;-88
2023/08/23 09:12:23;;;;;;;8.23;4.25;;;;;;;19.91;66.99;98933.19;4943941;29;20051;-88
2023/08/23 09:14:54;;;;;;;6.88;4.60;;;;;;;20.13;66.00;98959.06;4963737;28;20051;-88
2023/08/23 09:17:22;;;;;;;7.15;4.75;;;;;;;20.07;65.38;98939.25;4940959;29;20054;-87
2023/08/23 09:19:50;;;;;;;10.65;4.32;;;;;;;20.28;65.98;98960.78;4946177;29;20051;-88
2023/08/23 09:22:21;;;;;;;6.43;4.75;;;;;;;20.49;64.39;98960.09;4962229;28;20040;-87
2023/08/23 09:24:51;;;;;;;7.40;4.32;;;;;;;20.50;63.09;98961.72;4962163;28;20051;-88
2023/08/23 09:27:20;;;;;;;6.72;4.28;;;;;;;20.40;62.36;98918.81;4926913;29;20137;-87
2023/08/23 09:29:48;;;;;;;8.60;5.00;;;;;;;20.60;62.04;98947.13;4948864;29;20051;-88
2023/08/23 09:32:15;;;;;;;8.35;5.15;;;;;;;20.55;61.84;98896.69;4944438;29;20043;-87
2023/08/23 09:34:42;;;;;;;7.97;4.97;;;;;;;20.95;61.69;98942.88;4965121;29;20035;-89
2023/08/23 09:37:29;;;;;;;7.95;4.38;;;;;;;20.93;61.15;98931.38;4962085;28;20676;-89
2023/08/23 09:39:55;;;;;;;13.57;4.75;;;;;;;21.06;60.79;98935.41;4965296;28;20126;-88
2023/08/23 09:42:26;;;;;;;8.57;4.55;;;;;;;21.14;60.56;98938.19;4967777;28;20050;-88
2023/08/23 09:44:56;;;;;;;7.80;4.63;;;;;;;21.11;60.19;98921.09;4968805;29;20070;-89
2023/08/23 09:47:55;;;;;;;11.80;5.32;;;;;;;21.47;60.00;98946.22;4947364;29;20066;-90
2023/08/23 09:50:28;;;;;;;11.43;5.50;;;;;;;21.34;59.54;98939.41;4961091;28;20047;-87
2023/08/23 09:53:06;;;;;;;13.40;5.30;;;;;;;21.30;60.24;98956.09;4964152;29;20054;-89
2023/08/23 09:55:40;;;;;;;18.77;9.77;;;;;;;21.08;59.10;98921.09;4975337;29;20138;-88
2023/08/23 09:58:25;;;;;;;25.48;6.47;;;;;;;20.95;60.30;98912.31;4976475;28;20058;-88
2023/08/23 10:00:51;;;;;;;29.70;6.95;;;;;;;21.22;62.68;98928.66;4952463;29;20043;-88
2023/08/23 10:03:25;;;;;;;33.10;8.93;;;;;;;21.34;61.43;98945.81;4939955;29;20047;-88
2023/08/23 10:05:52;;;;;;;12.27;7.50;;;;;;;21.08;59.85;98907.19;4941219;29;20039;-87
2023/08/23 10:08:27;;;;;;;18.73;8.88;;;;;;;21.32;59.88;98941.78;4943645;29;20103;-88
2023/08/23 10:10:56;;;;;;;16.48;7.88;;;;;;;21.27;59.75;98948.53;4952310;29;20575;-88
2023/08/23 10:13:24;;;;;;;42.78;15.52;;;;;;;21.33;60.52;98938.63;4954505;29;20043;-87
2023/08/23 10:15:56;;;;;;;19.17;9.07;;;;;;;21.37;60.31;98935.09;4973490;28;20047;-88
2023/08/23 10:18:30;;;;;;;12.88;6.75;;;;;;;21.40;60.86;98917.63;4959072;29;20051;-89
2023/08/23 10:21:19;;;;;;;10.77;6.78;;;;;;;21.57;58.63;98930.75;4973879;29;20424;-86
2023/08/23 10:23:48;;;;;;;20.35;5.88;;;;;;;21.38;59.47;98883.84;4956430;29;20167;-90
2023/08/23 10:26:21;;;;;;;10.73;6.07;;;;;;;21.32;58.29;98912.03;4934340;29;20103;-87
2023/08/23 10:29:10;;;;;;;15.70;7.50;;;;;;;21.38;58.74;98937.47;4952094;29;20094;-89
2023/08/23 10:32:24;;;;;;;22.20;7.95;;;;;;;21.26;59.47;98940.59;4964818;28;20046;-89
2023/08/23 10:34:54;;;;;;;21.17;8.20;;;;;;;21.15;59.74;98921.09;4973859;28;20051;-89
2023/08/23 10:37:25;;;;;;;27.00;7.53;;;;;;;21.00;59.09;98894.47;4960110;28;20048;-89
2023/08/23 10:39:58;;;;;;;15.93;9.10;;;;;;;21.16;58.74;98953.28;4975021;28;20043;-90
2023/08/23 10:42:57;;;;;;;19.65;3.20;;;;;;;20.46;55.35;98921.22;4943652;29;20091;-92
2023/08/23 10:45:48;;;;;;;13.82;2.75;;;;;;;19.61;59.29;98922.22;5026118;23;20063;-91
2023/08/23 10:48:24;;;;;;;17.77;7.18;;;;;;;19.16;62.14;98974.03;4944435;28;20046;-91
2023/08/23 10:50:53;;;;;;;25.42;12.88;;;;;;;18.55;64.31;98915.13;4950897;28;20898;-93
2023/08/23 10:53:22;;;;;;;12.95;5.53;;;;;;;18.70;66.59;98966.72;4984721;28;20033;-92
2023/08/23 10:55:54;;;;;;;6.35;3.72;;;;;;;18.53;68.50;98965.31;4966300;29;20697;-91
2023/08/23 10:58:23;;;;;;;6.75;3.35;;;;;;;18.06;69.49;98905.75;4954561;29;20050;-94
2023/08/23 11:00:53;;;;;;;6.93;2.70;;;;;;;18.22;69.93;98936.03;4954081;28;20058;-92
2023/08/23 11:03:22;;;;;;;9.70;2.80;;;;;;;18.11;69.96;98917.66;4976540;28;20019;-90
2023/08/23 11:05:59;;;;;;;9.45;3.22;;;;;;;18.14;72.30;98931.53;4960267;28;20055;-90
2023/08/23 11:08:31;;;;;;;7.72;3.63;;;;;;;18.05;73.46;98920.75;4955976;28;20047;-89
2023/08/23 11:10:59;;;;;;;8.93;3.72;;;;;;;17.96;73.61;98900.88;4942530;28;20034;-90
2023/08/23 11:13:25;;;;;;;7.20;3.63;;;;;;;18.02;73.72;98912.41;4965698;28;20050;-90
2023/08/23 11:16:03;;;;;;;8.48;3.78;;;;;;;18.11;74.94;98901.06;4968119;28;20043;-89
2023/08/23 11:18:52;;;;;;;13.40;3.50;;;;;;;18.42;74.96;98942.22;4954856;28;20094;-92
2023/08/23 11:21:32;;;;;;;8.27;3.63;;;;;;;18.52;75.70;98949.09;4973623;28;20057;-89
2023/08/23 11:24:15;;;;;;;11.30;4.85;;;;;;;18.29;73.80;98924.25;5002391;28;20034;-87
2023/08/23 11:26:43;;;;;;;14.90;4.75;;;;;;;18.27;74.91;98910.78;4984343;28;20102;-88
2023/08/23 11:29:13;;;;;;;10.85;4.68;;;;;;;18.62;74.05;98934.59;4981132;28;20046;-89
2023/08/23 11:31:39;;;;;;;12.57;4.75;;;;;;;18.58;75.80;98916.34;4945429;28;20034;-92
2023/08/23 11:34:17;;;;;;;10.25;4.50;;;;;;;18.82;76.06;98938.03;4973136;28;20050;-91
2023/08/23 11:47:03;;;;;;;16.60;7.28;;;;;;;18.57;76.04;98929.38;5678731;23;20110;-95
2023/08/23 11:49:32;;;;;;;21.30;8.20;;;;;;;18.50;76.65;98912.66;4945542;29;20055;-94
2023/08/23 11:51:58;;;;;;;14.05;7.13;;;;;;;18.63;77.38;98930.63;4922115;29;20054;-93
2023/08/23 12:03:23;;;;;;;15.40;8.18;;;;;;;18.96;79.58;98935.41;710670;23;20333;-93
2023/08/23 12:05:51;;;;;;;14.43;8.52;;;;;;;18.71;79.43;98893.56;4939814;29;20066;-93
2023/08/23 12:08:18;;;;;;;30.42;14.63;;;;;;;18.69;79.32;98895.13;4937551;29;20074;-96
2023/08/23 12:10:44;;;;;;;32.05;16.02;;;;;;;18.66;78.57;98904.97;4921863;29;20043;-95
2023/08/23 12:13:14;;;;;;;22.10;12.60;;;;;;;18.60;78.29;98898.16;4921869;29;20043;-96
2023/08/23 12:15:47;;;;;;;27.20;11.75;;;;;;;18.94;80.47;98950.81;4939831;29;20031;-96